»·PEaware :: SWA415 KLAS-KLAX

SWA415 :: KLAS-KLAX

FLIGHT INFORMATION

Flight Status: Arrived
Operator:
Southwest Airlines
More flights by this operator :: More flights under this callsign
Pilot: Martin T. (17809)
Aircraft: BOEING 737-800
(B738)
More flights by this aircraft type
Origin: KLAS McCarran Intl
United States
Destination: KLAX Los Angeles Intl
United States
More flights between these airports :: More routes between these airports
Route: +BOACH8 RIKII SHTNR ANJLL2
File this flight plan on PilotEdge
Remarks: XPlane 11
Altitude:
(Current/Filed)
34,000ft
Speed:
(Current/Filed)
420kts
Departed: 05-Jan-18 12:36 PM
Arrived: 05-Jan-18 01:27 PM
Distance/Time
Traveled:
205nm/0:51
Distance/Time
To Go:
Arrived

Flight Plot

Page will automatically refresh every two minutes.

Flight plan parsing failed; only flown route is shown


Map Options




Map Legend


Flown Route
Filed Route
Departure Airport
Arrival Airport
Navaid (VOR, NDB)
Fix

Horizontal Profiles

Position Reports

Time Latitude Longitude Heading Altitude Ground
Speed
05-Jan-18 11:54 36.079930 -115.147141 89 2119ft 0kts
05-Jan-18 11:55 36.079930 -115.147141 89 2119ft 0kts
05-Jan-18 11:56 36.079930 -115.147141 89 2119ft 0kts
05-Jan-18 11:57 36.079930 -115.147141 89 2119ft 0kts
05-Jan-18 11:58 36.079930 -115.147141 89 2119ft 0kts
05-Jan-18 11:59 36.079930 -115.147141 89 2119ft 0kts
05-Jan-18 12:00 36.079930 -115.147141 89 2119ft 0kts
05-Jan-18 12:01 36.079930 -115.147141 89 2119ft 0kts
05-Jan-18 12:02 36.079930 -115.147141 89 2119ft 0kts
05-Jan-18 12:03 36.079930 -115.147141 89 2119ft 0kts
05-Jan-18 12:04 36.079930 -115.147141 89 2119ft 0kts
05-Jan-18 12:05 36.079930 -115.147141 89 2119ft 0kts
05-Jan-18 12:06 36.079930 -115.147141 89 2119ft 0kts
05-Jan-18 12:07 36.079930 -115.147141 89 2119ft 0kts
05-Jan-18 12:08 36.079930 -115.147141 89 2119ft 0kts
05-Jan-18 12:09 36.079930 -115.147141 89 2119ft 0kts
05-Jan-18 12:10 36.079930 -115.147141 89 2119ft 0kts
05-Jan-18 12:11 36.079930 -115.147141 89 2119ft 0kts
05-Jan-18 12:12 36.079930 -115.147141 89 2119ft 0kts
05-Jan-18 12:13 36.079930 -115.147141 89 2119ft 0kts
05-Jan-18 12:14 36.079930 -115.147141 89 2119ft 0kts
05-Jan-18 12:15 36.079930 -115.147141 89 2119ft 0kts
05-Jan-18 12:16 36.079930 -115.147141 89 2119ft 0kts
05-Jan-18 12:17 36.079930 -115.147141 89 2119ft 0kts
05-Jan-18 12:18 36.079930 -115.147141 89 2119ft 0kts
05-Jan-18 12:19 36.079930 -115.147141 89 2119ft 0kts
05-Jan-18 12:20 36.079930 -115.147141 89 2119ft 0kts
05-Jan-18 12:21 36.079930 -115.147141 89 2119ft 0kts
05-Jan-18 12:22 36.079926 -115.147419 90 2119ft 2kts
05-Jan-18 12:23 36.080186 -115.148011 152 2119ft 0kts
05-Jan-18 12:24 36.080250 -115.148047 155 2119ft 0kts
05-Jan-18 12:25 36.080250 -115.148047 155 2119ft 0kts
05-Jan-18 12:26 36.080250 -115.148047 155 2119ft 0kts
05-Jan-18 12:27 36.080250 -115.148047 155 2119ft 0kts
05-Jan-18 12:28 36.080250 -115.148047 155 2119ft 0kts
05-Jan-18 12:29 36.080250 -115.148047 155 2119ft 0kts
05-Jan-18 12:30 36.080250 -115.148047 155 2119ft 0kts
05-Jan-18 12:31 36.080250 -115.148047 155 2119ft 0kts
05-Jan-18 12:32 36.080250 -115.148047 155 2119ft 0kts
05-Jan-18 12:33 36.079921 -115.147866 156 2119ft 9kts
05-Jan-18 12:34 36.077598 -115.144628 95 2119ft 13kts
05-Jan-18 12:35 36.078256 -115.140752 89 2119ft 16kts
05-Jan-18 12:36 36.078265 -115.133093 89 2119ft 25kts
05-Jan-18 12:37 36.078296 -115.123091 92 2119ft 17kts
05-Jan-18 12:38 36.077555 -115.121593 131 2119ft 0kts
05-Jan-18 12:39 36.077555 -115.121593 131 2119ft 0kts
05-Jan-18 12:40 36.077555 -115.121593 131 2119ft 0kts
05-Jan-18 12:41 36.076425 -115.121602 256 2119ft 11kts
05-Jan-18 12:42 36.076406 -115.124217 270 2119ft 58kts
05-Jan-18 12:43 36.077074 -115.175001 273 3972ft 182kts
05-Jan-18 12:44 36.072716 -115.239636 242 5857ft 249kts
05-Jan-18 12:45 36.013261 -115.281477 203 7024ft 259kts
05-Jan-18 12:46 35.941800 -115.305499 187 9236ft 290kts
05-Jan-18 12:47 35.874277 -115.313098 188 11177ft 290kts
05-Jan-18 12:48 35.788890 -115.307335 178 13932ft 336kts
05-Jan-18 12:49 35.695826 -115.296672 180 17637ft 354kts
05-Jan-18 12:50 35.602440 -115.297594 188 19463ft 359kts
05-Jan-18 12:51 35.503722 -115.305935 205 22399ft 363kts
05-Jan-18 12:52 35.419755 -115.363912 218 25275ft 367kts
05-Jan-18 12:53 35.333349 -115.426567 219 27833ft 380kts
05-Jan-18 12:54 35.243299 -115.491849 220 30083ft 394kts
05-Jan-18 12:55 35.149450 -115.559901 221 32129ft 405kts
05-Jan-18 12:56 35.072509 -115.644078 236 34288ft 382kts
05-Jan-18 12:57 35.038737 -115.687009 235 34343ft 396kts
05-Jan-18 12:58 34.964231 -115.781274 234 34328ft 408kts
05-Jan-18 12:59 34.899272 -115.863585 233 34329ft 414kts
05-Jan-18 13:00 34.885752 -115.880723 233 34327ft 415kts
05-Jan-18 13:01 34.829899 -115.951540 233 34329ft 416kts
05-Jan-18 13:02 34.753241 -116.048856 233 34327ft 416kts
05-Jan-18 13:03 34.675649 -116.147453 233 34325ft 415kts
05-Jan-18 13:04 34.598204 -116.245968 233 33040ft 416kts
05-Jan-18 13:05 34.523952 -116.340515 233 31099ft 402kts
05-Jan-18 13:06 34.450239 -116.434476 232 29119ft 392kts
05-Jan-18 13:07 34.392306 -116.535943 248 27137ft 373kts
05-Jan-18 13:08 34.348813 -116.642228 247 25182ft 366kts
05-Jan-18 13:09 34.339378 -116.665135 246 24815ft 363kts
05-Jan-18 13:10 34.311517 -116.733944 246 23747ft 358kts
05-Jan-18 13:11 34.270466 -116.835647 246 22144ft 353kts
05-Jan-18 13:12 34.229777 -116.936625 246 20520ft 346kts
05-Jan-18 13:13 34.196624 -117.035931 253 18924ft 337kts
05-Jan-18 13:14 34.169015 -117.138709 252 17437ft 330kts
05-Jan-18 13:15 34.142118 -117.236566 252 16307ft 328kts
05-Jan-18 13:16 34.115211 -117.334236 252 15164ft 325kts
05-Jan-18 13:17 34.089973 -117.431359 253 14022ft 322kts
05-Jan-18 13:18 34.068331 -117.529297 260 12643ft 306kts
05-Jan-18 13:19 34.054368 -117.623067 259 11132ft 281kts
05-Jan-18 13:20 34.048031 -117.661681 259 10482ft 274kts
05-Jan-18 13:21 34.034747 -117.737633 259 9214ft 272kts
05-Jan-18 13:22 34.020155 -117.818158 261 7827ft 263kts
05-Jan-18 13:23 34.010916 -117.899919 260 6656ft 254kts
05-Jan-18 13:24 34.000446 -117.978013 259 5532ft 246kts
05-Jan-18 13:25 33.988063 -118.054208 259 4571ft 231kts
05-Jan-18 13:26 33.980645 -118.123493 263 4051ft 215kts
05-Jan-18 13:27 33.974886 -118.180662 263 3737ft 193kts
05-Jan-18 13:28 33.968805 -118.239993 263 2777ft 175kts
05-Jan-18 13:29 33.963289 -118.294205 263 1904ft 166kts
05-Jan-18 13:30 33.958549 -118.340177 263 1136ft 137kts
05-Jan-18 13:31 33.954311 -118.380962 263 494ft 133kts
05-Jan-18 13:32 33.950250 -118.420340 261 111ft 51kts
05-Jan-18 13:33 33.948577 -118.426713 226 110ft 0kts
05-Jan-18 13:34 33.947291 -118.427698 191 110ft 18kts
05-Jan-18 13:35 33.946606 -118.424466 83 111ft 11kts
05-Jan-18 13:36 33.947119 -118.419682 83 111ft 17kts
05-Jan-18 13:37 33.947907 -118.413129 82 110ft 21kts
05-Jan-18 13:38 33.948721 -118.405374 82 110ft 25kts
05-Jan-18 13:39 33.948713 -118.400687 130 110ft 5kts
05-Jan-18 13:40 33.948070 -118.400513 235 110ft 4kts
05-Jan-18 13:41 33.947883 -118.400754 223 110ft 0kts

Navigation Log

Ident Type
Flight plan parsing failed, navigation log unavailable